sensor_id;sensor_type;location;lat;lon;timestamp;P1;durP1;ratioP1;P2;durP2;ratioP2
13797;SDS011;6970;51.340;3.240;2022-10-24T00:04:40;2.20;;;1.20;;
13797;SDS011;6970;51.340;3.240;2022-10-24T00:07:13;4.57;;;1.20;;
13797;SDS011;6970;51.340;3.240;2022-10-24T00:09:40;6.67;;;1.70;;
13797;SDS011;6970;51.340;3.240;2022-10-24T00:12:08;3.87;;;1.33;;
13797;SDS011;6970;51.340;3.240;2022-10-24T00:14:41;2.60;;;1.13;;
13797;SDS011;6970;51.340;3.240;2022-10-24T00:17:11;3.87;;;1.03;;
13797;SDS011;6970;51.340;3.240;2022-10-24T00:19:38;5.37;;;0.90;;
13797;SDS011;6970;51.340;3.240;2022-10-24T00:22:05;5.27;;;1.30;;
13797;SDS011;6970;51.340;3.240;2022-10-24T00:29:35;1.90;;;1.27;;
13797;SDS011;6970;51.340;3.240;2022-10-24T00:32:08;4.40;;;1.10;;
13797;SDS011;6970;51.340;3.240;2022-10-24T00:34:37;3.03;;;0.93;;
13797;SDS011;6970;51.340;3.240;2022-10-24T00:37:07;4.63;;;1.33;;
13797;SDS011;6970;51.340;3.240;2022-10-24T00:42:06;4.27;;;1.63;;
13797;SDS011;6970;51.340;3.240;2022-10-24T00:44:36;2.87;;;0.90;;
13797;SDS011;6970;51.340;3.240;2022-10-24T00:49:43;4.83;;;1.50;;
13797;SDS011;6970;51.340;3.240;2022-10-24T00:52:14;2.90;;;0.90;;
13797;SDS011;6970;51.340;3.240;2022-10-24T00:54:45;2.63;;;1.00;;
13797;SDS011;6970;51.340;3.240;2022-10-24T00:57:30;4.43;;;1.57;;
13797;SDS011;6970;51.340;3.240;2022-10-24T01:00:18;2.40;;;0.90;;
13797;SDS011;6970;51.340;3.240;2022-10-24T01:02:49;2.30;;;0.90;;
13797;SDS011;6970;51.340;3.240;2022-10-24T01:05:20;4.33;;;1.10;;
13797;SDS011;6970;51.340;3.240;2022-10-24T01:08:01;6.57;;;1.50;;
13797;SDS011;6970;51.340;3.240;2022-10-24T01:18:45;3.67;;;0.87;;
13797;SDS011;6970;51.340;3.240;2022-10-24T01:21:35;5.60;;;1.20;;
13797;SDS011;6970;51.340;3.240;2022-10-24T01:30:14;2.13;;;0.90;;
13797;SDS011;6970;51.340;3.240;2022-10-24T01:33:02;5.03;;;1.20;;
13797;SDS011;6970;51.340;3.240;2022-10-24T01:36:23;4.13;;;1.10;;
13797;SDS011;6970;51.340;3.240;2022-10-24T01:38:50;4.70;;;1.20;;
13797;SDS011;6970;51.340;3.240;2022-10-24T01:41:25;4.03;;;0.87;;
13797;SDS011;6970;51.340;3.240;2022-10-24T01:46:33;4.90;;;0.90;;
13797;SDS011;6970;51.340;3.240;2022-10-24T01:49:14;2.63;;;1.03;;
13797;SDS011;6970;51.340;3.240;2022-10-24T01:51:44;2.33;;;1.30;;
13797;SDS011;6970;51.340;3.240;2022-10-24T01:54:14;4.17;;;1.00;;
13797;SDS011;6970;51.340;3.240;2022-10-24T01:56:41;2.30;;;0.90;;
13797;SDS011;6970;51.340;3.240;2022-10-24T02:01:55;2.23;;;0.70;;
13797;SDS011;6970;51.340;3.240;2022-10-24T02:04:31;5.87;;;0.93;;
13797;SDS011;6970;51.340;3.240;2022-10-24T02:07:02;5.63;;;1.33;;
13797;SDS011;6970;51.340;3.240;2022-10-24T02:09:34;3.13;;;1.50;;
13797;SDS011;6970;51.340;3.240;2022-10-24T02:12:05;5.80;;;1.23;;
13797;SDS011;6970;51.340;3.240;2022-10-24T02:14:42;5.03;;;0.90;;
13797;SDS011;6970;51.340;3.240;2022-10-24T02:17:13;4.73;;;1.30;;
13797;SDS011;6970;51.340;3.240;2022-10-24T02:19:40;7.33;;;1.23;;
13797;SDS011;6970;51.340;3.240;2022-10-24T02:25:11;5.97;;;1.33;;
13797;SDS011;6970;51.340;3.240;2022-10-24T02:28:18;6.37;;;1.70;;
13797;SDS011;6970;51.340;3.240;2022-10-24T02:30:55;8.93;;;1.57;;
13797;SDS011;6970;51.340;3.240;2022-10-24T02:33:32;8.37;;;1.70;;
13797;SDS011;6970;51.340;3.240;2022-10-24T02:36:09;4.53;;;1.27;;
13797;SDS011;6970;51.340;3.240;2022-10-24T02:41:18;6.97;;;1.50;;
13797;SDS011;6970;51.340;3.240;2022-10-24T02:44:00;6.53;;;1.60;;
13797;SDS011;6970;51.340;3.240;2022-10-24T02:46:29;7.53;;;1.97;;
13797;SDS011;6970;51.340;3.240;2022-10-24T02:49:01;11.00;;;2.00;;
13797;SDS011;6970;51.340;3.240;2022-10-24T02:54:06;6.00;;;1.53;;
13797;SDS011;6970;51.340;3.240;2022-10-24T02:59:11;7.20;;;1.40;;
13797;SDS011;6970;51.340;3.240;2022-10-24T03:01:39;7.43;;;2.03;;
13797;SDS011;6970;51.340;3.240;2022-10-24T03:06:36;4.07;;;1.30;;
13797;SDS011;6970;51.340;3.240;2022-10-24T03:09:05;4.43;;;1.10;;
13797;SDS011;6970;51.340;3.240;2022-10-24T03:11:32;5.33;;;1.67;;
13797;SDS011;6970;51.340;3.240;2022-10-24T03:14:01;6.03;;;1.97;;
13797;SDS011;6970;51.340;3.240;2022-10-24T03:21:31;5.13;;;1.40;;
13797;SDS011;6970;51.340;3.240;2022-10-24T03:26:30;6.20;;;1.60;;
13797;SDS011;6970;51.340;3.240;2022-10-24T03:28:59;7.13;;;1.80;;
13797;SDS011;6970;51.340;3.240;2022-10-24T03:34:00;7.10;;;1.87;;
13797;SDS011;6970;51.340;3.240;2022-10-24T03:36:29;4.10;;;1.30;;
13797;SDS011;6970;51.340;3.240;2022-10-24T03:39:02;6.77;;;1.33;;
13797;SDS011;6970;51.340;3.240;2022-10-24T03:41:32;5.27;;;1.23;;
13797;SDS011;6970;51.340;3.240;2022-10-24T03:44:00;8.23;;;1.60;;
13797;SDS011;6970;51.340;3.240;2022-10-24T03:46:30;7.90;;;1.40;;
13797;SDS011;6970;51.340;3.240;2022-10-24T03:48:59;5.70;;;1.50;;
13797;SDS011;6970;51.340;3.240;2022-10-24T03:51:28;4.27;;;1.70;;
13797;SDS011;6970;51.340;3.240;2022-10-24T03:56:28;7.23;;;1.43;;
13797;SDS011;6970;51.340;3.240;2022-10-24T03:58:58;8.23;;;1.47;;
13797;SDS011;6970;51.340;3.240;2022-10-24T04:01:25;5.60;;;1.27;;
13797;SDS011;6970;51.340;3.240;2022-10-24T04:03:56;4.30;;;1.50;;
13797;SDS011;6970;51.340;3.240;2022-10-24T04:06:22;7.07;;;1.53;;
13797;SDS011;6970;51.340;3.240;2022-10-24T04:08:49;16.57;;;1.97;;
13797;SDS011;6970;51.340;3.240;2022-10-24T04:11:19;4.97;;;1.13;;
13797;SDS011;6970;51.340;3.240;2022-10-24T04:13:50;4.17;;;1.30;;
13797;SDS011;6970;51.340;3.240;2022-10-24T04:16:20;4.77;;;1.30;;
13797;SDS011;6970;51.340;3.240;2022-10-24T04:18:52;4.50;;;0.83;;
13797;SDS011;6970;51.340;3.240;2022-10-24T04:21:22;6.70;;;1.30;;
13797;SDS011;6970;51.340;3.240;2022-10-24T04:26:19;4.37;;;1.67;;
13797;SDS011;6970;51.340;3.240;2022-10-24T04:28:52;6.53;;;1.50;;
13797;SDS011;6970;51.340;3.240;2022-10-24T04:33:52;6.00;;;1.43;;
13797;SDS011;6970;51.340;3.240;2022-10-24T04:36:19;6.90;;;1.50;;
13797;SDS011;6970;51.340;3.240;2022-10-24T04:38:49;6.97;;;1.57;;
13797;SDS011;6970;51.340;3.240;2022-10-24T04:41:17;5.23;;;1.37;;
13797;SDS011;6970;51.340;3.240;2022-10-24T04:43:46;4.27;;;1.43;;
13797;SDS011;6970;51.340;3.240;2022-10-24T04:46:19;5.50;;;1.07;;
13797;SDS011;6970;51.340;3.240;2022-10-24T04:48:46;6.90;;;1.53;;
13797;SDS011;6970;51.340;3.240;2022-10-24T04:51:13;4.13;;;1.23;;
13797;SDS011;6970;51.340;3.240;2022-10-24T04:53:58;6.93;;;1.40;;
13797;SDS011;6970;51.340;3.240;2022-10-24T04:56:27;6.30;;;1.40;;
13797;SDS011;6970;51.340;3.240;2022-10-24T04:58:56;3.03;;;1.10;;
13797;SDS011;6970;51.340;3.240;2022-10-24T05:01:26;3.10;;;1.27;;
13797;SDS011;6970;51.340;3.240;2022-10-24T05:06:24;7.23;;;1.40;;
13797;SDS011;6970;51.340;3.240;2022-10-24T05:08:51;7.80;;;1.33;;
13797;SDS011;6970;51.340;3.240;2022-10-24T05:11:20;4.93;;;1.60;;
13797;SDS011;6970;51.340;3.240;2022-10-24T05:13:48;7.20;;;1.20;;
13797;SDS011;6970;51.340;3.240;2022-10-24T05:21:15;6.60;;;1.30;;
13797;SDS011;6970;51.340;3.240;2022-10-24T05:26:15;6.57;;;1.13;;
13797;SDS011;6970;51.340;3.240;2022-10-24T05:33:50;8.47;;;1.40;;
13797;SDS011;6970;51.340;3.240;2022-10-24T05:36:18;4.67;;;1.03;;
13797;SDS011;6970;51.340;3.240;2022-10-24T05:38:47;3.63;;;1.03;;
13797;SDS011;6970;51.340;3.240;2022-10-24T05:43:47;4.47;;;0.90;;
13797;SDS011;6970;51.340;3.240;2022-10-24T05:46:16;3.43;;;0.87;;
13797;SDS011;6970;51.340;3.240;2022-10-24T05:51:16;5.87;;;1.07;;
13797;SDS011;6970;51.340;3.240;2022-10-24T05:53:49;2.63;;;0.93;;
13797;SDS011;6970;51.340;3.240;2022-10-24T05:58:46;2.40;;;0.87;;
13797;SDS011;6970;51.340;3.240;2022-10-24T06:11:13;4.03;;;1.20;;
13797;SDS011;6970;51.340;3.240;2022-10-24T06:16:13;5.40;;;1.13;;
13797;SDS011;6970;51.340;3.240;2022-10-24T06:21:13;2.97;;;0.93;;
13797;SDS011;6970;51.340;3.240;2022-10-24T06:23:42;5.30;;;1.10;;
13797;SDS011;6970;51.340;3.240;2022-10-24T06:26:10;4.57;;;1.30;;
13797;SDS011;6970;51.340;3.240;2022-10-24T06:31:08;7.20;;;1.50;;
13797;SDS011;6970;51.340;3.240;2022-10-24T06:33:40;6.23;;;1.43;;
13797;SDS011;6970;51.340;3.240;2022-10-24T06:36:09;7.17;;;1.60;;
13797;SDS011;6970;51.340;3.240;2022-10-24T06:43:39;6.07;;;1.43;;
13797;SDS011;6970;51.340;3.240;2022-10-24T06:46:08;5.33;;;1.50;;
13797;SDS011;6970;51.340;3.240;2022-10-24T06:48:37;4.20;;;1.10;;
13797;SDS011;6970;51.340;3.240;2022-10-24T06:51:05;8.13;;;1.07;;
13797;SDS011;6970;51.340;3.240;2022-10-24T06:53:33;4.93;;;1.77;;
13797;SDS011;6970;51.340;3.240;2022-10-24T06:58:32;4.70;;;1.50;;
13797;SDS011;6970;51.340;3.240;2022-10-24T07:01:10;4.97;;;1.03;;
13797;SDS011;6970;51.340;3.240;2022-10-24T07:03:41;5.17;;;1.00;;
13797;SDS011;6970;51.340;3.240;2022-10-24T07:06:15;5.00;;;1.20;;
13797;SDS011;6970;51.340;3.240;2022-10-24T07:08:44;6.70;;;1.43;;
13797;SDS011;6970;51.340;3.240;2022-10-24T07:11:12;4.77;;;1.37;;
13797;SDS011;6970;51.340;3.240;2022-10-24T07:13:40;3.93;;;1.30;;
13797;SDS011;6970;51.340;3.240;2022-10-24T07:16:08;7.73;;;1.50;;
13797;SDS011;6970;51.340;3.240;2022-10-24T07:18:41;10.17;;;1.70;;
13797;SDS011;6970;51.340;3.240;2022-10-24T07:21:20;5.10;;;1.43;;
13797;SDS011;6970;51.340;3.240;2022-10-24T07:23:55;7.20;;;2.10;;
13797;SDS011;6970;51.340;3.240;2022-10-24T07:26:23;5.13;;;1.80;;
13797;SDS011;6970;51.340;3.240;2022-10-24T07:28:55;7.03;;;1.60;;
13797;SDS011;6970;51.340;3.240;2022-10-24T07:31:29;5.73;;;1.90;;
13797;SDS011;6970;51.340;3.240;2022-10-24T07:36:33;6.60;;;2.00;;
13797;SDS011;6970;51.340;3.240;2022-10-24T07:39:05;6.30;;;1.50;;
13797;SDS011;6970;51.340;3.240;2022-10-24T07:41:32;10.10;;;1.80;;
13797;SDS011;6970;51.340;3.240;2022-10-24T07:46:34;9.40;;;2.07;;
13797;SDS011;6970;51.340;3.240;2022-10-24T07:49:00;6.90;;;1.50;;
13797;SDS011;6970;51.340;3.240;2022-10-24T07:51:28;7.60;;;1.97;;
13797;SDS011;6970;51.340;3.240;2022-10-24T07:53:56;8.10;;;2.00;;
13797;SDS011;6970;51.340;3.240;2022-10-24T07:56:25;5.50;;;1.73;;
13797;SDS011;6970;51.340;3.240;2022-10-24T07:58:52;7.63;;;2.20;;
13797;SDS011;6970;51.340;3.240;2022-10-24T08:01:22;7.30;;;1.57;;
13797;SDS011;6970;51.340;3.240;2022-10-24T08:03:50;8.13;;;1.67;;
13797;SDS011;6970;51.340;3.240;2022-10-24T08:06:27;6.00;;;1.80;;
13797;SDS011;6970;51.340;3.240;2022-10-24T08:08:58;8.73;;;2.03;;
13797;SDS011;6970;51.340;3.240;2022-10-24T08:11:25;6.57;;;2.33;;
13797;SDS011;6970;51.340;3.240;2022-10-24T08:13:54;6.73;;;1.47;;
13797;SDS011;6970;51.340;3.240;2022-10-24T08:16:23;7.20;;;1.67;;
13797;SDS011;6970;51.340;3.240;2022-10-24T08:18:52;8.77;;;2.30;;
13797;SDS011;6970;51.340;3.240;2022-10-24T08:21:23;7.53;;;1.83;;
13797;SDS011;6970;51.340;3.240;2022-10-24T08:23:52;5.27;;;1.50;;
13797;SDS011;6970;51.340;3.240;2022-10-24T08:26:22;7.17;;;1.93;;
13797;SDS011;6970;51.340;3.240;2022-10-24T08:28:53;7.43;;;1.47;;
13797;SDS011;6970;51.340;3.240;2022-10-24T08:31:24;7.10;;;2.00;;
13797;SDS011;6970;51.340;3.240;2022-10-24T08:33:54;5.57;;;2.50;;
13797;SDS011;6970;51.340;3.240;2022-10-24T08:38:56;7.87;;;1.63;;
13797;SDS011;6970;51.340;3.240;2022-10-24T08:44:27;5.80;;;1.50;;
13797;SDS011;6970;51.340;3.240;2022-10-24T08:50:12;8.87;;;1.87;;
13797;SDS011;6970;51.340;3.240;2022-10-24T08:52:56;4.83;;;1.53;;
13797;SDS011;6970;51.340;3.240;2022-10-24T08:55:50;9.33;;;2.03;;
13797;SDS011;6970;51.340;3.240;2022-10-24T08:58:21;8.50;;;1.80;;
13797;SDS011;6970;51.340;3.240;2022-10-24T09:01:11;6.70;;;1.50;;
13797;SDS011;6970;51.340;3.240;2022-10-24T09:03:42;10.00;;;2.03;;
13797;SDS011;6970;51.340;3.240;2022-10-24T09:06:23;8.00;;;1.43;;
13797;SDS011;6970;51.340;3.240;2022-10-24T09:08:53;5.30;;;1.63;;
13797;SDS011;6970;51.340;3.240;2022-10-24T09:19:51;3.83;;;1.27;;
13797;SDS011;6970;51.340;3.240;2022-10-24T09:22:22;7.30;;;1.77;;
13797;SDS011;6970;51.340;3.240;2022-10-24T09:24:57;4.83;;;1.60;;
13797;SDS011;6970;51.340;3.240;2022-10-24T09:27:35;7.47;;;1.83;;
13797;SDS011;6970;51.340;3.240;2022-10-24T09:32:46;5.43;;;1.47;;
13797;SDS011;6970;51.340;3.240;2022-10-24T09:35:18;6.80;;;1.50;;
13797;SDS011;6970;51.340;3.240;2022-10-24T09:37:56;6.00;;;1.50;;
13797;SDS011;6970;51.340;3.240;2022-10-24T09:40:26;8.03;;;2.10;;
13797;SDS011;6970;51.340;3.240;2022-10-24T09:45:42;4.30;;;1.70;;
13797;SDS011;6970;51.340;3.240;2022-10-24T09:48:20;3.47;;;1.40;;
13797;SDS011;6970;51.340;3.240;2022-10-24T09:51:01;5.80;;;1.63;;
13797;SDS011;6970;51.340;3.240;2022-10-24T09:53:31;7.43;;;1.53;;
13797;SDS011;6970;51.340;3.240;2022-10-24T09:58:36;7.67;;;1.93;;
13797;SDS011;6970;51.340;3.240;2022-10-24T10:01:17;6.43;;;1.50;;
13797;SDS011;6970;51.340;3.240;2022-10-24T10:03:59;5.63;;;1.83;;
13797;SDS011;6970;51.340;3.240;2022-10-24T10:06:41;6.87;;;1.70;;
13797;SDS011;6970;51.340;3.240;2022-10-24T10:09:11;5.00;;;1.40;;
13797;SDS011;6970;51.340;3.240;2022-10-24T10:11:43;9.90;;;1.60;;
13797;SDS011;6970;51.340;3.240;2022-10-24T10:14:30;4.40;;;1.30;;
13797;SDS011;6970;51.340;3.240;2022-10-24T10:17:04;5.37;;;1.60;;
13797;SDS011;6970;51.340;3.240;2022-10-24T10:19:37;5.00;;;1.70;;
13797;SDS011;6970;51.340;3.240;2022-10-24T10:22:22;4.80;;;1.43;;
13797;SDS011;6970;51.340;3.240;2022-10-24T10:25:00;4.97;;;1.60;;
13797;SDS011;6970;51.340;3.240;2022-10-24T10:27:37;5.67;;;1.50;;
13797;SDS011;6970;51.340;3.240;2022-10-24T10:38:39;4.57;;;1.67;;
13797;SDS011;6970;51.340;3.240;2022-10-24T10:41:47;4.23;;;1.60;;
13797;SDS011;6970;51.340;3.240;2022-10-24T10:55:39;4.57;;;1.57;;
13797;SDS011;6970;51.340;3.240;2022-10-24T11:01:56;5.90;;;1.80;;
13797;SDS011;6970;51.340;3.240;2022-10-24T11:04:21;5.77;;;2.03;;
13797;SDS011;6970;51.340;3.240;2022-10-24T11:09:47;6.33;;;1.60;;
13797;SDS011;6970;51.340;3.240;2022-10-24T11:12:21;5.67;;;1.67;;
13797;SDS011;6970;51.340;3.240;2022-10-24T11:17:48;6.07;;;1.40;;
13797;SDS011;6970;51.340;3.240;2022-10-24T11:22:59;5.57;;;2.00;;
13797;SDS011;6970;51.340;3.240;2022-10-24T11:31:29;7.43;;;1.50;;
13797;SDS011;6970;51.340;3.240;2022-10-24T11:34:06;7.77;;;1.90;;
13797;SDS011;6970;51.340;3.240;2022-10-24T11:39:56;7.27;;;1.63;;
13797;SDS011;6970;51.340;3.240;2022-10-24T11:45:44;5.53;;;1.67;;
13797;SDS011;6970;51.340;3.240;2022-10-24T11:51:12;7.67;;;1.70;;
13797;SDS011;6970;51.340;3.240;2022-10-24T11:53:56;13.00;;;3.33;;
13797;SDS011;6970;51.340;3.240;2022-10-24T11:56:36;9.67;;;2.20;;
13797;SDS011;6970;51.340;3.240;2022-10-24T12:10:37;9.73;;;2.40;;
13797;SDS011;6970;51.340;3.240;2022-10-24T12:15:49;8.53;;;2.47;;
13797;SDS011;6970;51.340;3.240;2022-10-24T12:18:33;5.37;;;2.10;;
13797;SDS011;6970;51.340;3.240;2022-10-24T12:21:08;5.77;;;2.20;;
13797;SDS011;6970;51.340;3.240;2022-10-24T12:23:41;16.53;;;3.57;;
13797;SDS011;6970;51.340;3.240;2022-10-24T12:26:18;19.73;;;4.10;;
13797;SDS011;6970;51.340;3.240;2022-10-24T12:29:06;16.07;;;3.90;;
13797;SDS011;6970;51.340;3.240;2022-10-24T12:31:48;10.20;;;2.57;;
13797;SDS011;6970;51.340;3.240;2022-10-24T12:39:35;6.17;;;1.80;;
13797;SDS011;6970;51.340;3.240;2022-10-24T12:44:46;8.53;;;1.70;;
13797;SDS011;6970;51.340;3.240;2022-10-24T12:58:29;6.50;;;1.50;;
13797;SDS011;6970;51.340;3.240;2022-10-24T13:01:03;6.60;;;1.37;;
13797;SDS011;6970;51.340;3.240;2022-10-24T13:15:11;10.23;;;2.33;;
13797;SDS011;6970;51.340;3.240;2022-10-24T13:20:45;12.00;;;2.73;;
13797;SDS011;6970;51.340;3.240;2022-10-24T13:23:21;7.13;;;2.03;;
13797;SDS011;6970;51.340;3.240;2022-10-24T13:25:55;12.07;;;2.57;;
13797;SDS011;6970;51.340;3.240;2022-10-24T13:39:03;16.07;;;2.90;;
13797;SDS011;6970;51.340;3.240;2022-10-24T13:41:39;15.50;;;3.13;;
13797;SDS011;6970;51.340;3.240;2022-10-24T13:50:28;11.60;;;3.37;;
13797;SDS011;6970;51.340;3.240;2022-10-24T13:53:02;11.53;;;3.30;;
13797;SDS011;6970;51.340;3.240;2022-10-24T13:55:43;9.90;;;2.50;;
13797;SDS011;6970;51.340;3.240;2022-10-24T14:00:46;8.60;;;2.47;;
13797;SDS011;6970;51.340;3.240;2022-10-24T14:03:38;9.20;;;2.23;;
13797;SDS011;6970;51.340;3.240;2022-10-24T14:11:32;7.27;;;2.27;;
13797;SDS011;6970;51.340;3.240;2022-10-24T14:14:01;8.13;;;2.23;;
13797;SDS011;6970;51.340;3.240;2022-10-24T14:21:53;9.83;;;1.77;;
13797;SDS011;6970;51.340;3.240;2022-10-24T14:24:21;9.97;;;2.53;;
13797;SDS011;6970;51.340;3.240;2022-10-24T14:26:49;11.50;;;2.40;;
13797;SDS011;6970;51.340;3.240;2022-10-24T14:29:25;9.53;;;1.80;;
13797;SDS011;6970;51.340;3.240;2022-10-24T14:32:03;5.80;;;1.90;;
13797;SDS011;6970;51.340;3.240;2022-10-24T14:34:35;7.37;;;2.13;;
13797;SDS011;6970;51.340;3.240;2022-10-24T14:37:07;11.27;;;2.33;;
13797;SDS011;6970;51.340;3.240;2022-10-24T14:42:14;5.60;;;1.60;;
13797;SDS011;6970;51.340;3.240;2022-10-24T14:44:47;8.10;;;1.67;;
13797;SDS011;6970;51.340;3.240;2022-10-24T14:52:55;11.33;;;2.37;;
13797;SDS011;6970;51.340;3.240;2022-10-24T14:55:23;10.40;;;2.33;;
13797;SDS011;6970;51.340;3.240;2022-10-24T14:57:51;6.73;;;1.83;;
13797;SDS011;6970;51.340;3.240;2022-10-24T15:02:50;7.13;;;2.10;;
13797;SDS011;6970;51.340;3.240;2022-10-24T15:11:04;5.97;;;1.83;;
13797;SDS011;6970;51.340;3.240;2022-10-24T15:13:46;3.67;;;1.43;;
13797;SDS011;6970;51.340;3.240;2022-10-24T15:16:33;5.43;;;1.67;;
13797;SDS011;6970;51.340;3.240;2022-10-24T15:19:04;9.43;;;1.80;;
13797;SDS011;6970;51.340;3.240;2022-10-24T15:21:39;4.30;;;1.50;;
13797;SDS011;6970;51.340;3.240;2022-10-24T15:26:50;7.00;;;1.93;;
13797;SDS011;6970;51.340;3.240;2022-10-24T15:29:20;5.97;;;1.50;;
13797;SDS011;6970;51.340;3.240;2022-10-24T15:34:22;8.37;;;1.70;;
13797;SDS011;6970;51.340;3.240;2022-10-24T15:36:50;7.83;;;2.17;;
13797;SDS011;6970;51.340;3.240;2022-10-24T15:39:21;6.50;;;1.90;;
13797;SDS011;6970;51.340;3.240;2022-10-24T15:41:53;8.53;;;2.10;;
13797;SDS011;6970;51.340;3.240;2022-10-24T15:44:21;3.60;;;1.67;;
13797;SDS011;6970;51.340;3.240;2022-10-24T15:51:54;6.70;;;1.93;;
13797;SDS011;6970;51.340;3.240;2022-10-24T15:56:52;6.73;;;2.40;;
13797;SDS011;6970;51.340;3.240;2022-10-24T15:59:20;8.20;;;1.70;;
13797;SDS011;6970;51.340;3.240;2022-10-24T16:01:55;6.97;;;1.57;;
13797;SDS011;6970;51.340;3.240;2022-10-24T16:04:29;7.13;;;1.97;;
13797;SDS011;6970;51.340;3.240;2022-10-24T16:06:58;6.00;;;1.67;;
13797;SDS011;6970;51.340;3.240;2022-10-24T16:09:25;6.33;;;1.57;;
13797;SDS011;6970;51.340;3.240;2022-10-24T16:14:26;5.90;;;1.50;;
13797;SDS011;6970;51.340;3.240;2022-10-24T16:16:57;5.70;;;1.53;;
13797;SDS011;6970;51.340;3.240;2022-10-24T16:19:26;7.53;;;2.03;;
13797;SDS011;6970;51.340;3.240;2022-10-24T16:21:54;5.50;;;1.77;;
13797;SDS011;6970;51.340;3.240;2022-10-24T16:24:32;3.70;;;1.70;;
13797;SDS011;6970;51.340;3.240;2022-10-24T16:26:59;3.37;;;1.53;;
13797;SDS011;6970;51.340;3.240;2022-10-24T16:29:29;9.73;;;2.27;;
13797;SDS011;6970;51.340;3.240;2022-10-24T16:31:58;6.77;;;2.23;;
13797;SDS011;6970;51.340;3.240;2022-10-24T16:34:28;5.73;;;2.30;;
13797;SDS011;6970;51.340;3.240;2022-10-24T16:36:56;5.43;;;1.70;;
13797;SDS011;6970;51.340;3.240;2022-10-24T16:39:24;5.00;;;1.80;;
13797;SDS011;6970;51.340;3.240;2022-10-24T16:41:53;6.03;;;2.27;;
13797;SDS011;6970;51.340;3.240;2022-10-24T16:44:23;5.80;;;1.50;;
13797;SDS011;6970;51.340;3.240;2022-10-24T16:46:52;5.27;;;1.80;;
13797;SDS011;6970;51.340;3.240;2022-10-24T16:49:22;7.77;;;2.23;;
13797;SDS011;6970;51.340;3.240;2022-10-24T16:51:49;4.13;;;1.57;;
13797;SDS011;6970;51.340;3.240;2022-10-24T16:54:16;5.40;;;1.80;;
13797;SDS011;6970;51.340;3.240;2022-10-24T16:56:44;5.33;;;1.70;;
13797;SDS011;6970;51.340;3.240;2022-10-24T16:59:19;6.30;;;2.13;;
13797;SDS011;6970;51.340;3.240;2022-10-24T17:01:47;4.13;;;2.00;;
13797;SDS011;6970;51.340;3.240;2022-10-24T17:06:47;5.10;;;2.87;;
13797;SDS011;6970;51.340;3.240;2022-10-24T17:11:46;7.60;;;2.03;;
13797;SDS011;6970;51.340;3.240;2022-10-24T17:14:16;5.47;;;2.07;;
13797;SDS011;6970;51.340;3.240;2022-10-24T17:16:44;6.13;;;2.50;;
13797;SDS011;6970;51.340;3.240;2022-10-24T17:19:12;7.30;;;2.70;;
13797;SDS011;6970;51.340;3.240;2022-10-24T17:24:17;7.67;;;2.77;;
13797;SDS011;6970;51.340;3.240;2022-10-24T17:26:47;7.33;;;3.03;;
13797;SDS011;6970;51.340;3.240;2022-10-24T17:34:28;3.87;;;2.07;;
13797;SDS011;6970;51.340;3.240;2022-10-24T17:37:04;4.90;;;1.70;;
13797;SDS011;6970;51.340;3.240;2022-10-24T17:49:43;4.80;;;1.90;;
13797;SDS011;6970;51.340;3.240;2022-10-24T17:52:11;3.53;;;1.67;;
13797;SDS011;6970;51.340;3.240;2022-10-24T17:54:44;6.07;;;2.40;;
13797;SDS011;6970;51.340;3.240;2022-10-24T17:57:14;3.63;;;1.30;;
13797;SDS011;6970;51.340;3.240;2022-10-24T17:59:47;3.00;;;2.00;;
13797;SDS011;6970;51.340;3.240;2022-10-24T18:02:17;4.07;;;1.70;;
13797;SDS011;6970;51.340;3.240;2022-10-24T18:04:49;2.80;;;1.30;;
13797;SDS011;6970;51.340;3.240;2022-10-24T18:07:16;3.37;;;1.43;;
13797;SDS011;6970;51.340;3.240;2022-10-24T18:09:43;3.20;;;1.50;;
13797;SDS011;6970;51.340;3.240;2022-10-24T18:12:10;4.07;;;1.97;;
13797;SDS011;6970;51.340;3.240;2022-10-24T18:14:37;2.53;;;1.47;;
13797;SDS011;6970;51.340;3.240;2022-10-24T18:17:05;3.23;;;2.00;;
13797;SDS011;6970;51.340;3.240;2022-10-24T18:19:32;2.87;;;1.70;;
13797;SDS011;6970;51.340;3.240;2022-10-24T18:22:00;3.70;;;2.10;;
13797;SDS011;6970;51.340;3.240;2022-10-24T18:24:26;2.67;;;1.83;;
13797;SDS011;6970;51.340;3.240;2022-10-24T18:26:53;7.37;;;1.93;;
13797;SDS011;6970;51.340;3.240;2022-10-24T18:29:20;4.90;;;1.40;;
13797;SDS011;6970;51.340;3.240;2022-10-24T18:31:47;3.93;;;1.50;;
13797;SDS011;6970;51.340;3.240;2022-10-24T18:34:14;3.60;;;1.23;;
13797;SDS011;6970;51.340;3.240;2022-10-24T18:36:41;2.33;;;1.10;;
13797;SDS011;6970;51.340;3.240;2022-10-24T18:39:08;5.13;;;1.67;;
13797;SDS011;6970;51.340;3.240;2022-10-24T18:41:46;2.53;;;1.27;;
13797;SDS011;6970;51.340;3.240;2022-10-24T18:46:49;3.03;;;1.03;;
13797;SDS011;6970;51.340;3.240;2022-10-24T18:49:17;4.73;;;1.50;;
13797;SDS011;6970;51.340;3.240;2022-10-24T18:54:37;5.63;;;1.17;;
13797;SDS011;6970;51.340;3.240;2022-10-24T18:59:48;2.57;;;1.20;;
13797;SDS011;6970;51.340;3.240;2022-10-24T19:02:22;3.93;;;1.87;;
13797;SDS011;6970;51.340;3.240;2022-10-24T19:07:34;4.70;;;1.50;;
13797;SDS011;6970;51.340;3.240;2022-10-24T19:10:01;4.07;;;1.10;;
13797;SDS011;6970;51.340;3.240;2022-10-24T19:12:28;5.53;;;1.13;;
13797;SDS011;6970;51.340;3.240;2022-10-24T19:14:55;2.73;;;1.53;;
13797;SDS011;6970;51.340;3.240;2022-10-24T19:17:22;4.03;;;1.63;;
13797;SDS011;6970;51.340;3.240;2022-10-24T19:19:49;5.60;;;2.07;;
13797;SDS011;6970;51.340;3.240;2022-10-24T19:22:16;6.63;;;2.73;;
13797;SDS011;6970;51.340;3.240;2022-10-24T19:24:43;4.57;;;2.27;;
13797;SDS011;6970;51.340;3.240;2022-10-24T19:27:10;6.33;;;2.27;;
13797;SDS011;6970;51.340;3.240;2022-10-24T19:29:37;4.77;;;2.23;;
13797;SDS011;6970;51.340;3.240;2022-10-24T19:32:04;3.23;;;1.30;;
13797;SDS011;6970;51.340;3.240;2022-10-24T19:34:32;3.17;;;1.20;;
13797;SDS011;6970;51.340;3.240;2022-10-24T19:37:00;6.23;;;1.70;;
13797;SDS011;6970;51.340;3.240;2022-10-24T19:39:28;3.63;;;1.20;;
13797;SDS011;6970;51.340;3.240;2022-10-24T19:41:59;3.87;;;1.80;;
13797;SDS011;6970;51.340;3.240;2022-10-24T19:44:26;4.93;;;1.53;;
13797;SDS011;6970;51.340;3.240;2022-10-24T19:46:53;5.13;;;1.80;;
13797;SDS011;6970;51.340;3.240;2022-10-24T19:49:19;4.50;;;1.57;;
13797;SDS011;6970;51.340;3.240;2022-10-24T19:51:46;4.13;;;2.03;;
13797;SDS011;6970;51.340;3.240;2022-10-24T19:54:14;3.80;;;1.40;;
13797;SDS011;6970;51.340;3.240;2022-10-24T19:56:41;6.57;;;1.40;;
13797;SDS011;6970;51.340;3.240;2022-10-24T19:59:08;6.47;;;1.30;;
13797;SDS011;6970;51.340;3.240;2022-10-24T20:01:37;3.63;;;1.40;;
13797;SDS011;6970;51.340;3.240;2022-10-24T20:04:04;2.70;;;1.30;;
13797;SDS011;6970;51.340;3.240;2022-10-24T20:06:31;5.20;;;1.37;;
13797;SDS011;6970;51.340;3.240;2022-10-24T20:08:58;4.63;;;1.33;;
13797;SDS011;6970;51.340;3.240;2022-10-24T20:11:25;4.93;;;1.67;;
13797;SDS011;6970;51.340;3.240;2022-10-24T20:13:52;4.93;;;1.97;;
13797;SDS011;6970;51.340;3.240;2022-10-24T20:16:19;5.30;;;1.70;;
13797;SDS011;6970;51.340;3.240;2022-10-24T20:18:47;5.67;;;1.87;;
13797;SDS011;6970;51.340;3.240;2022-10-24T20:21:15;6.53;;;1.20;;
13797;SDS011;6970;51.340;3.240;2022-10-24T20:23:47;6.20;;;1.73;;
13797;SDS011;6970;51.340;3.240;2022-10-24T20:26:16;8.03;;;1.63;;
13797;SDS011;6970;51.340;3.240;2022-10-24T20:28:45;4.57;;;1.43;;
13797;SDS011;6970;51.340;3.240;2022-10-24T20:31:17;8.27;;;2.07;;
13797;SDS011;6970;51.340;3.240;2022-10-24T20:33:48;6.63;;;1.93;;
13797;SDS011;6970;51.340;3.240;2022-10-24T20:36:15;5.90;;;1.93;;
13797;SDS011;6970;51.340;3.240;2022-10-24T20:38:42;4.50;;;1.80;;
13797;SDS011;6970;51.340;3.240;2022-10-24T20:41:09;7.73;;;2.00;;
13797;SDS011;6970;51.340;3.240;2022-10-24T20:43:36;4.77;;;1.70;;
13797;SDS011;6970;51.340;3.240;2022-10-24T20:46:04;6.13;;;1.80;;
13797;SDS011;6970;51.340;3.240;2022-10-24T20:48:32;5.83;;;1.70;;
13797;SDS011;6970;51.340;3.240;2022-10-24T20:51:04;6.03;;;2.37;;
13797;SDS011;6970;51.340;3.240;2022-10-24T20:53:36;5.50;;;1.93;;
13797;SDS011;6970;51.340;3.240;2022-10-24T20:56:08;6.10;;;1.80;;
13797;SDS011;6970;51.340;3.240;2022-10-24T20:58:37;6.70;;;1.70;;